Time;durP1;ratioP1;P1;durP2;ratioP2;P2;SDS_P1;SDS_P2;PMS_P1;PMS_P2;Temp;Humidity;BMP_temperature;BMP_pressure;BME280_temperature;BME280_humidity;BME280_pressure;Samples;Min_cycle;Max_cycle;Signal;HPM_P1;HPM_P2
2021/06/15 00:00:30;;;;;;;6.90;6.30;;;16.00;99.90;;;;;;5032430;28;20205;-80
2021/06/15 00:02:57;;;;;;;6.80;6.10;;;16.00;99.90;;;;;;5030889;28;20729;-80
2021/06/15 00:05:25;;;;;;;7.33;6.70;;;15.90;99.90;;;;;;5032267;28;20202;-81
2021/06/15 00:07:52;;;;;;;6.97;6.43;;;15.90;99.90;;;;;;5027815;28;20566;-81
2021/06/15 00:10:21;;;;;;;6.53;6.03;;;15.90;99.90;;;;;;5032986;28;20203;-79
2021/06/15 00:12:48;;;;;;;6.70;6.20;;;15.90;99.90;;;;;;5032484;28;20288;-80
2021/06/15 00:15:16;;;;;;;7.00;6.40;;;15.80;99.90;;;;;;5031485;28;20211;-80
2021/06/15 00:17:43;;;;;;;6.90;6.30;;;15.80;99.90;;;;;;5030804;28;20226;-79
2021/06/15 00:20:12;;;;;;;7.90;7.20;;;15.70;99.90;;;;;;5031360;28;20299;-80
2021/06/15 00:22:41;;;;;;;7.03;6.40;;;15.60;99.90;;;;;;5032449;28;20228;-80
2021/06/15 00:25:09;;;;;;;7.77;6.30;;;15.60;99.90;;;;;;5031343;28;20725;-80
2021/06/15 00:27:35;;;;;;;6.93;6.33;;;15.60;99.90;;;;;;5032363;28;20192;-80
2021/06/15 00:30:03;;;;;;;7.27;6.67;;;15.50;99.90;;;;;;5031382;28;20208;-80
2021/06/15 00:32:30;;;;;;;7.20;6.60;;;15.40;99.90;;;;;;5047791;28;20223;-80
2021/06/15 00:34:57;;;;;;;6.83;6.27;;;15.40;99.90;;;;;;5031193;28;20572;-81
2021/06/15 00:37:24;;;;;;;7.10;6.50;;;15.40;99.90;;;;;;5030992;28;20223;-80
2021/06/15 00:39:52;;;;;;;10.93;6.77;;;15.30;99.90;;;;;;5031270;28;20203;-80
2021/06/15 00:42:19;;;;;;;7.10;6.40;;;15.30;99.90;;;;;;5030839;28;20224;-80
2021/06/15 00:44:46;;;;;;;7.13;6.43;;;15.20;99.90;;;;;;5030794;28;20573;-80
2021/06/15 00:47:13;;;;;;;6.80;6.30;;;15.30;99.90;;;;;;5030315;28;20700;-80
2021/06/15 00:49:41;;;;;;;6.93;6.33;;;15.20;99.90;;;;;;5030533;28;20210;-80
2021/06/15 00:52:09;;;;;;;7.00;6.47;;;15.20;99.90;;;;;;5029952;28;20261;-79
2021/06/15 00:54:36;;;;;;;8.10;7.30;;;15.10;99.90;;;;;;5046665;28;20286;-79
2021/06/15 00:57:05;;;;;;;7.67;6.97;;;15.10;99.90;;;;;;5030560;28;20204;-79
2021/06/15 00:59:32;;;;;;;8.03;7.33;;;15.10;99.90;;;;;;5031329;28;20257;-80
2021/06/15 01:01:59;;;;;;;7.73;7.03;;;15.10;99.90;;;;;;5030332;28;20566;-79
2021/06/15 01:04:27;;;;;;;7.27;6.67;;;15.10;99.90;;;;;;5030194;28;20354;-80
2021/06/15 01:07:04;;;;;;;8.70;6.90;;;15.00;99.90;;;;;;5030402;28;20205;-80
2021/06/15 01:09:37;;;;;;;7.00;6.40;;;15.00;99.90;;;;;;5030403;28;20666;-79
2021/06/15 01:12:21;;;;;;;7.70;7.00;;;14.90;99.90;;;;;;5031813;28;20223;-80
2021/06/15 01:14:59;;;;;;;7.60;6.97;;;14.90;99.90;;;;;;5027582;28;20195;-79
2021/06/15 01:17:33;;;;;;;7.87;7.17;;;14.90;99.90;;;;;;5033630;28;20311;-80
2021/06/15 01:20:08;;;;;;;8.00;7.30;;;14.80;99.90;;;;;;5034815;28;20230;-80
2021/06/15 01:23:29;;;;;;;7.97;7.20;;;14.80;99.90;;;;;;5034768;28;20773;-78
2021/06/15 01:26:15;;;;;;;8.17;7.37;;;14.80;99.90;;;;;;4992266;28;20695;-80
2021/06/15 01:28:46;;;;;;;7.93;7.23;;;14.70;99.90;;;;;;5034304;28;20191;-81
2021/06/15 01:31:17;;;;;;;8.43;7.50;;;14.70;99.90;;;;;;5038167;28;20194;-80
2021/06/15 01:33:50;;;;;;;7.70;7.00;;;14.70;99.90;;;;;;5029883;28;20218;-81
2021/06/15 01:36:19;;;;;;;7.97;7.17;;;14.60;99.90;;;;;;5037997;28;20297;-81
2021/06/15 01:38:52;;;;;;;8.90;7.57;;;14.60;99.90;;;;;;5046964;28;20225;-80
2021/06/15 01:41:27;;;;;;;8.33;7.53;;;14.50;99.90;;;;;;5035013;28;20271;-79
2021/06/15 01:44:01;;;;;;;7.87;7.10;;;14.50;99.90;;;;;;5034597;28;20726;-80
2021/06/15 01:46:34;;;;;;;7.57;6.83;;;14.50;99.90;;;;;;5037500;28;20221;-80
2021/06/15 01:49:05;;;;;;;7.53;6.93;;;14.40;99.90;;;;;;5044681;28;20191;-79
2021/06/15 01:51:35;;;;;;;9.20;7.40;;;14.40;99.90;;;;;;5025677;28;20211;-80
2021/06/15 01:54:09;;;;;;;8.03;7.23;;;14.40;99.90;;;;;;5033649;28;20222;-80
2021/06/15 01:56:41;;;;;;;8.33;7.30;;;14.30;99.90;;;;;;5050756;28;20208;-80
2021/06/15 01:59:15;;;;;;;8.83;7.50;;;14.30;99.90;;;;;;5033736;28;20697;-80
2021/06/15 02:01:48;;;;;;;8.17;7.40;;;14.30;99.90;;;;;;5033696;28;20203;-80
2021/06/15 02:04:22;;;;;;;8.00;7.40;;;14.30;99.90;;;;;;5033726;28;20198;-80
2021/06/15 02:06:51;;;;;;;8.20;7.50;;;14.30;99.90;;;;;;5033372;28;20251;-80
2021/06/15 02:09:20;;;;;;;8.37;7.50;;;14.20;99.90;;;;;;5033603;28;20202;-80
2021/06/15 02:11:57;;;;;;;8.23;7.50;;;14.20;99.90;;;;;;5027011;28;20720;-80
2021/06/15 02:14:44;;;;;;;8.80;8.00;;;14.20;99.90;;;;;;5033023;28;20210;-80
2021/06/15 02:17:35;;;;;;;9.27;7.87;;;14.20;99.90;;;;;;5027860;28;20220;-81
2021/06/15 02:20:18;;;;;;;9.50;8.53;;;14.10;99.90;;;;;;5029579;28;20210;-79
2021/06/15 02:22:48;;;;;;;8.03;7.37;;;14.10;99.90;;;;;;5041860;28;20215;-79
2021/06/15 02:25:22;;;;;;;7.70;7.10;;;14.10;99.90;;;;;;5042876;28;20199;-80
2021/06/15 02:27:49;;;;;;;7.93;7.27;;;14.00;99.90;;;;;;5043442;28;20643;-80
2021/06/15 02:30:18;;;;;;;11.10;9.00;;;13.90;99.90;;;;;;5028907;28;20697;-80
2021/06/15 02:32:56;;;;;;;7.80;7.10;;;13.90;99.90;;;;;;5042396;28;20223;-79
2021/06/15 02:35:27;;;;;;;8.93;8.13;;;13.80;99.90;;;;;;5033061;28;20293;-79
2021/06/15 02:37:57;;;;;;;8.20;7.40;;;13.80;99.90;;;;;;5034626;28;20217;-79
2021/06/15 02:40:27;;;;;;;8.83;8.03;;;13.80;99.90;;;;;;5033155;28;20197;-80
2021/06/15 02:42:56;;;;;;;9.10;8.20;;;13.70;99.90;;;;;;5049335;28;20232;-78
2021/06/15 02:45:30;;;;;;;9.17;8.37;;;13.70;99.90;;;;;;5023341;28;20199;-78
2021/06/15 02:48:01;;;;;;;8.60;7.80;;;13.70;99.90;;;;;;5049208;28;20197;-77
2021/06/15 02:50:29;;;;;;;8.47;7.63;;;13.70;99.90;;;;;;5034068;28;20600;-79
2021/06/15 02:53:03;;;;;;;8.30;7.60;;;13.70;99.90;;;;;;5035644;28;20221;-78
2021/06/15 02:55:33;;;;;;;9.53;8.73;;;13.70;99.90;;;;;;5032241;28;20210;-78
2021/06/15 02:58:01;;;;;;;8.57;7.70;;;13.60;99.90;;;;;;5032613;28;20203;-78
2021/06/15 03:00:30;;;;;;;8.10;7.40;;;13.60;99.90;;;;;;5042833;28;20204;-78
2021/06/15 03:02:58;;;;;;;8.80;7.93;;;13.60;99.90;;;;;;5033528;28;20234;-78
2021/06/15 03:05:26;;;;;;;8.37;7.47;;;13.60;99.90;;;;;;5028120;28;20198;-78
2021/06/15 03:07:55;;;;;;;8.13;7.53;;;13.60;99.90;;;;;;5033682;28;20205;-78
2021/06/15 03:10:25;;;;;;;9.50;8.77;;;13.60;99.90;;;;;;5033263;28;20198;-77
2021/06/15 03:12:59;;;;;;;9.23;8.47;;;13.70;99.90;;;;;;5029043;28;20226;-78
2021/06/15 03:15:35;;;;;;;8.63;8.00;;;13.70;99.90;;;;;;5033383;28;20202;-77
2021/06/15 03:18:07;;;;;;;8.77;7.97;;;13.60;99.90;;;;;;5033435;28;20202;-78
2021/06/15 03:20:36;;;;;;;9.40;8.70;;;13.60;99.90;;;;;;5032766;28;20198;-78
2021/06/15 03:23:07;;;;;;;9.17;8.37;;;13.60;99.90;;;;;;5034041;28;20208;-78
2021/06/15 03:25:36;;;;;;;8.57;7.87;;;13.50;99.90;;;;;;5032272;28;20220;-78
2021/06/15 03:28:09;;;;;;;8.93;8.13;;;13.50;99.90;;;;;;5031691;28;20200;-79
2021/06/15 03:30:40;;;;;;;9.47;8.67;;;13.50;99.90;;;;;;5030493;28;20674;-79
2021/06/15 03:33:10;;;;;;;10.27;9.37;;;13.40;99.90;;;;;;5031857;28;20227;-79
2021/06/15 03:35:42;;;;;;;9.30;8.53;;;13.40;99.90;;;;;;5030940;28;20222;-80
2021/06/15 03:38:12;;;;;;;9.07;8.27;;;13.40;99.90;;;;;;5032063;28;20206;-78
2021/06/15 03:40:42;;;;;;;10.20;9.33;;;13.40;99.90;;;;;;5030731;28;20207;-78
2021/06/15 03:43:10;;;;;;;9.97;8.97;;;13.50;99.90;;;;;;5031815;28;20227;-78
2021/06/15 03:45:42;;;;;;;10.20;9.30;;;13.50;99.90;;;;;;5032569;28;20198;-78
2021/06/15 03:48:10;;;;;;;9.50;8.57;;;13.50;99.90;;;;;;5034078;28;20199;-78
2021/06/15 03:50:38;;;;;;;9.33;8.50;;;13.50;99.90;;;;;;5033472;28;20608;-79
2021/06/15 03:53:09;;;;;;;9.70;8.90;;;13.50;99.90;;;;;;5032280;28;20234;-78
2021/06/15 03:55:38;;;;;;;9.27;8.47;;;13.60;99.90;;;;;;5033045;28;20204;-78
2021/06/15 03:58:07;;;;;;;10.00;9.10;;;13.60;99.90;;;;;;5033922;28;20695;-78
2021/06/15 04:00:36;;;;;;;10.57;9.47;;;13.60;99.90;;;;;;5032334;28;20197;-79
2021/06/15 04:03:07;;;;;;;10.23;9.33;;;13.70;99.90;;;;;;5033587;28;20595;-78
2021/06/15 04:05:37;;;;;;;10.67;9.77;;;13.70;99.90;;;;;;5032026;28;20230;-78
2021/06/15 04:08:08;;;;;;;10.17;9.27;;;13.80;99.90;;;;;;5033178;28;20206;-78
2021/06/15 04:10:37;;;;;;;10.60;9.70;;;13.90;99.90;;;;;;5033133;28;20209;-78
2021/06/15 04:13:05;;;;;;;9.83;9.00;;;14.00;99.90;;;;;;5031741;28;20312;-77
2021/06/15 04:15:34;;;;;;;10.40;9.50;;;14.10;99.90;;;;;;5032765;28;20210;-78
2021/06/15 04:18:05;;;;;;;10.73;9.63;;;14.20;99.90;;;;;;5031134;28;20198;-78
2021/06/15 04:20:36;;;;;;;9.83;9.03;;;14.30;99.90;;;;;;5026462;28;20223;-78
2021/06/15 04:23:06;;;;;;;9.97;9.17;;;14.40;99.90;;;;;;5031309;28;20227;-78
2021/06/15 04:25:38;;;;;;;9.90;9.00;;;14.60;99.90;;;;;;5032427;28;20217;-78
2021/06/15 04:28:06;;;;;;;9.60;8.90;;;14.70;99.90;;;;;;5031326;28;20253;-78
2021/06/15 04:30:35;;;;;;;10.27;9.47;;;14.80;99.90;;;;;;5038789;28;20198;-78
2021/06/15 04:33:06;;;;;;;6.63;6.03;;;14.90;99.90;;;;;;5033905;28;20277;-78
2021/06/15 04:35:37;;;;;;;7.00;6.40;;;15.00;99.90;;;;;;5032284;28;20574;-78
2021/06/15 04:38:09;;;;;;;8.80;8.10;;;15.20;99.90;;;;;;5031363;28;20199;-78
2021/06/15 04:40:38;;;;;;;8.50;7.73;;;15.30;99.90;;;;;;5031502;28;20689;-77
2021/06/15 04:43:21;;;;;;;9.10;8.30;;;15.50;99.90;;;;;;5034002;28;20211;-78
2021/06/15 04:45:50;;;;;;;6.07;5.50;;;15.60;99.90;;;;;;5026753;28;20195;-84
2021/06/15 04:48:26;;;;;;;7.30;6.53;;;15.70;99.90;;;;;;5033250;28;20206;-77
2021/06/15 04:50:59;;;;;;;7.70;7.10;;;16.20;99.90;;;;;;5034494;28;20402;-78
2021/06/15 04:53:29;;;;;;;6.90;6.30;;;17.10;99.90;;;;;;5034844;28;20285;-78
2021/06/15 04:55:57;;;;;;;6.80;6.20;;;17.60;99.90;;;;;;5033542;28;20215;-77
2021/06/15 04:58:24;;;;;;;7.83;7.23;;;17.80;99.90;;;;;;5035036;28;20201;-77
2021/06/15 05:00:53;;;;;;;7.03;6.43;;;17.90;99.90;;;;;;5034758;28;20221;-78
2021/06/15 05:03:21;;;;;;;7.50;6.90;;;17.80;99.90;;;;;;5033482;28;20222;-78
2021/06/15 05:05:49;;;;;;;4.30;3.90;;;17.80;99.90;;;;;;5034531;28;20193;-77
2021/06/15 05:08:21;;;;;;;4.53;4.00;;;17.90;99.90;;;;;;5034398;28;20693;-77
2021/06/15 05:10:49;;;;;;;4.43;3.90;;;17.90;99.90;;;;;;5042217;28;20196;-78
2021/06/15 05:13:19;;;;;;;6.77;4.13;;;18.00;99.90;;;;;;5035384;28;20293;-78
2021/06/15 05:16:05;;;;;;;4.40;3.87;;;18.00;99.90;;;;;;5035216;28;20203;-78
2021/06/15 11:13:43;;;;;;;7.43;6.40;;;29.80;82.20;;;;;;5321717;23;20712;-77
2021/06/15 11:16:21;;;;;;;7.20;6.50;;;30.00;81.70;;;;;;4955443;28;20249;-76
2021/06/15 11:19:28;;;;;;;7.30;6.70;;;30.10;81.20;;;;;;4959151;28;20202;-77
2021/06/15 11:21:57;;;;;;;7.20;6.50;;;30.20;82.40;;;;;;4948630;28;20194;-75
2021/06/15 11:24:26;;;;;;;7.43;6.83;;;30.00;80.00;;;;;;4954814;28;20202;-77
2021/06/15 11:26:54;;;;;;;6.83;6.33;;;30.00;84.80;;;;;;4948349;29;20193;-76
2021/06/15 11:29:33;;;;;;;6.67;6.07;;;29.90;81.30;;;;;;4947456;28;20198;-76
2021/06/15 11:32:19;;;;;;;7.20;6.70;;;29.70;79.50;;;;;;4954766;29;20561;-77
2021/06/15 11:35:17;;;;;;;6.77;6.17;;;29.60;81.70;;;;;;4947275;28;20199;-77
2021/06/15 11:37:47;;;;;;;7.33;6.63;;;29.80;82.80;;;;;;4949274;28;20206;-77
2021/06/15 11:40:32;;;;;;;7.03;6.43;;;29.80;80.00;;;;;;4949943;28;20214;-76
2021/06/15 11:43:18;;;;;;;6.87;6.37;;;29.60;81.20;;;;;;4954774;28;20233;-76
2021/06/15 11:45:48;;;;;;;6.57;6.10;;;29.60;82.00;;;;;;4940517;28;20194;-76
2021/06/15 11:48:34;;;;;;;6.60;6.20;;;29.60;80.70;;;;;;4948127;28;20612;-76
2021/06/15 11:51:02;;;;;;;7.07;6.57;;;29.60;78.50;;;;;;4943684;28;20640;-77
2021/06/15 11:53:31;;;;;;;6.90;6.40;;;29.60;80.50;;;;;;4948777;28;20211;-76
2021/06/15 11:56:01;;;;;;;7.33;6.73;;;29.20;79.40;;;;;;4952243;28;20622;-77
2021/06/15 11:58:30;;;;;;;7.73;6.97;;;29.30;80.90;;;;;;4952416;29;20280;-76
2021/06/15 12:00:59;;;;;;;8.07;7.30;;;29.10;80.50;;;;;;4950201;28;20648;-75
2021/06/15 12:03:27;;;;;;;6.80;6.30;;;29.00;81.10;;;;;;4947554;28;20219;-77
2021/06/15 12:05:56;;;;;;;6.70;6.20;;;29.20;81.40;;;;;;4949038;28;20198;-77
2021/06/15 12:08:29;;;;;;;6.97;6.37;;;29.20;79.20;;;;;;4946945;28;20267;-76
2021/06/15 12:10:55;;;;;;;6.67;6.17;;;28.90;77.10;;;;;;4950895;28;20191;-77
2021/06/15 12:13:24;;;;;;;6.93;6.20;;;28.90;79.40;;;;;;4951020;29;20237;-76
2021/06/15 12:15:56;;;;;;;6.73;6.23;;;29.00;78.90;;;;;;4947446;29;20198;-77
2021/06/15 12:18:41;;;;;;;6.90;6.27;;;29.10;80.00;;;;;;4948562;28;20588;-78
2021/06/15 12:21:11;;;;;;;7.13;6.60;;;29.00;79.40;;;;;;4952246;28;20225;-77
2021/06/15 12:23:41;;;;;;;6.53;6.13;;;29.10;80.10;;;;;;4941721;28;20238;-76
2021/06/15 12:26:15;;;;;;;6.80;6.30;;;29.10;76.00;;;;;;4942625;28;20207;-76
2021/06/15 12:28:43;;;;;;;7.37;6.77;;;28.90;75.70;;;;;;4948175;28;20210;-77
2021/06/15 12:31:14;;;;;;;7.23;6.70;;;28.80;76.80;;;;;;4946643;28;20199;-77
2021/06/15 12:33:44;;;;;;;6.90;6.33;;;28.70;74.90;;;;;;4952720;28;20270;-77
2021/06/15 12:36:13;;;;;;;6.50;6.10;;;28.70;74.00;;;;;;4950353;28;20632;-78
2021/06/15 12:38:41;;;;;;;6.63;6.23;;;28.50;75.80;;;;;;4956511;29;20210;-77
2021/06/15 12:41:09;;;;;;;6.70;6.10;;;28.60;75.70;;;;;;4951509;29;20289;-77
2021/06/15 12:43:37;;;;;;;7.13;6.63;;;28.50;77.40;;;;;;4940423;28;20733;-77
2021/06/15 12:46:13;;;;;;;6.83;6.33;;;28.50;76.00;;;;;;4933936;28;20283;-77
2021/06/15 12:48:51;;;;;;;7.40;6.80;;;28.60;76.50;;;;;;4953843;28;20190;-77
2021/06/15 12:51:21;;;;;;;6.63;6.13;;;28.70;78.70;;;;;;4947927;28;20286;-77
2021/06/15 12:53:49;;;;;;;7.20;6.70;;;28.60;76.40;;;;;;4951562;28;20269;-76
2021/06/15 12:56:27;;;;;;;6.93;6.43;;;28.70;79.80;;;;;;4950634;29;20187;-77
2021/06/15 12:58:56;;;;;;;6.60;6.10;;;28.80;77.10;;;;;;4946468;29;20217;-77
2021/06/15 13:01:27;;;;;;;7.73;6.60;;;28.90;78.60;;;;;;4946879;28;20226;-77
2021/06/15 13:03:55;;;;;;;6.77;6.27;;;28.70;79.30;;;;;;4949724;28;20309;-76
2021/06/15 13:06:25;;;;;;;6.40;6.00;;;28.80;79.00;;;;;;4949520;28;20194;-78
2021/06/15 13:08:52;;;;;;;6.70;6.20;;;28.90;81.40;;;;;;4950601;28;20233;-77
2021/06/15 13:11:22;;;;;;;6.37;5.93;;;29.00;77.10;;;;;;4949865;29;20205;-76
2021/06/15 13:13:53;;;;;;;6.57;6.07;;;28.90;76.50;;;;;;4945246;28;20230;-77
2021/06/15 13:16:21;;;;;;;5.93;5.60;;;28.90;75.40;;;;;;4945445;28;20207;-78
2021/06/15 13:19:06;;;;;;;6.10;5.70;;;28.80;74.60;;;;;;4950376;28;20198;-76
2021/06/15 13:21:58;;;;;;;6.60;6.07;;;28.80;76.60;;;;;;4954340;28;20308;-76
2021/06/15 13:24:33;;;;;;;6.80;6.27;;;28.90;77.80;;;;;;4932047;28;20302;-77
2021/06/15 13:27:26;;;;;;;6.87;6.27;;;28.70;77.80;;;;;;4957475;28;20704;-77
2021/06/15 13:29:55;;;;;;;6.33;5.90;;;28.70;80.50;;;;;;4944769;28;20638;-78
2021/06/15 13:32:24;;;;;;;6.30;5.80;;;28.70;80.50;;;;;;4950592;28;20215;-78
2021/06/15 13:35:13;;;;;;;6.80;6.20;;;28.60;76.30;;;;;;4955298;28;20228;-77
2021/06/15 13:37:42;;;;;;;6.80;6.20;;;28.50;74.40;;;;;;4955072;28;20213;-77
2021/06/15 13:40:12;;;;;;;6.33;5.83;;;28.50;76.10;;;;;;4951833;29;20214;-78
2021/06/15 13:42:40;;;;;;;6.60;6.13;;;28.40;77.90;;;;;;4949805;28;20225;-78
2021/06/15 13:45:13;;;;;;;6.77;6.27;;;28.50;78.40;;;;;;4948933;28;20209;-78
2021/06/15 13:47:42;;;;;;;6.80;6.10;;;28.50;75.80;;;;;;4950776;28;20199;-77
2021/06/15 13:50:12;;;;;;;6.70;6.20;;;28.40;73.80;;;;;;4952862;28;20209;-78
2021/06/15 13:52:39;;;;;;;6.37;5.93;;;28.40;74.80;;;;;;4955872;29;20219;-77
2021/06/15 13:55:08;;;;;;;6.40;5.93;;;28.40;75.80;;;;;;4955515;28;20199;-77
2021/06/15 13:57:36;;;;;;;6.30;5.90;;;28.40;77.00;;;;;;4940326;28;20199;-77
2021/06/15 14:00:06;;;;;;;6.60;6.20;;;28.40;75.20;;;;;;4955939;28;20935;-77
2021/06/15 14:02:39;;;;;;;10.33;6.37;;;28.40;75.80;;;;;;4945953;28;20223;-76
2021/06/15 14:05:07;;;;;;;6.70;6.17;;;28.30;78.60;;;;;;4942539;28;20677;-76
2021/06/15 14:07:35;;;;;;;6.50;6.00;;;28.30;79.20;;;;;;4937136;28;20210;-75
2021/06/15 14:10:02;;;;;;;6.53;6.03;;;28.30;80.10;;;;;;4942089;28;20210;-77
2021/06/15 14:12:29;;;;;;;6.30;5.80;;;28.50;81.10;;;;;;4942263;28;20258;-76
2021/06/15 14:15:01;;;;;;;6.53;6.03;;;28.50;79.00;;;;;;4947202;28;20269;-76
2021/06/15 14:17:28;;;;;;;6.30;5.90;;;28.60;75.90;;;;;;4947328;28;20203;-76
2021/06/15 14:19:55;;;;;;;6.23;5.73;;;28.40;76.60;;;;;;4943882;28;20226;-76
2021/06/15 14:22:22;;;;;;;6.90;6.20;;;28.20;78.20;;;;;;4947304;28;20260;-76
2021/06/15 14:24:52;;;;;;;6.40;5.97;;;28.30;77.30;;;;;;4953965;28;20191;-76
2021/06/15 14:27:21;;;;;;;5.80;5.30;;;28.30;77.80;;;;;;4948742;28;20225;-76
2021/06/15 14:29:48;;;;;;;5.83;5.43;;;28.30;77.10;;;;;;4942134;28;20202;-77
2021/06/15 14:32:15;;;;;;;5.83;5.43;;;28.40;76.50;;;;;;4942307;28;20218;-76
2021/06/15 14:34:42;;;;;;;6.57;6.03;;;28.30;74.20;;;;;;4947947;28;20202;-76
2021/06/15 14:37:10;;;;;;;6.20;5.80;;;28.20;75.80;;;;;;4945692;28;20202;-76
2021/06/15 14:39:37;;;;;;;6.10;5.70;;;28.30;76.00;;;;;;4946132;28;20202;-77
2021/06/15 14:42:08;;;;;;;6.67;6.10;;;28.40;77.90;;;;;;4940824;28;20306;-76
2021/06/15 14:44:35;;;;;;;5.97;5.53;;;28.40;75.80;;;;;;4943363;28;20623;-78
2021/06/15 14:47:02;;;;;;;6.43;5.93;;;28.40;75.80;;;;;;4952768;28;20668;-77
2021/06/15 14:49:29;;;;;;;6.17;5.67;;;28.40;76.10;;;;;;4942620;29;20656;-80
2021/06/15 14:51:56;;;;;;;5.93;5.50;;;28.40;75.70;;;;;;4947417;28;20196;-78
2021/06/15 14:54:23;;;;;;;5.73;5.33;;;28.40;76.70;;;;;;4946599;28;20242;-78
2021/06/15 14:56:50;;;;;;;6.00;5.60;;;28.40;76.50;;;;;;4937560;29;20200;-78
2021/06/15 14:59:18;;;;;;;6.00;5.50;;;28.40;79.30;;;;;;4940666;29;20280;-76
2021/06/15 15:01:45;;;;;;;5.93;5.53;;;28.40;75.30;;;;;;4938805;29;20253;-76
2021/06/15 15:04:12;;;;;;;5.70;5.30;;;28.30;74.80;;;;;;4935079;29;20220;-76
2021/06/15 15:06:39;;;;;;;5.57;5.27;;;28.30;75.90;;;;;;4938417;29;20676;-76
2021/06/15 15:09:06;;;;;;;5.43;5.10;;;28.30;76.60;;;;;;4939668;29;20203;-76
2021/06/15 15:11:34;;;;;;;5.53;5.20;;;28.30;74.70;;;;;;4945260;29;20583;-77
2021/06/15 15:14:00;;;;;;;5.80;5.40;;;28.30;76.20;;;;;;4942410;28;20643;-77
2021/06/15 15:16:29;;;;;;;6.13;5.63;;;28.30;77.50;;;;;;4945889;29;20812;-78
2021/06/15 15:18:56;;;;;;;5.60;5.20;;;28.20;73.80;;;;;;4946782;28;20677;-78
2021/06/15 15:21:25;;;;;;;5.53;5.13;;;28.20;75.00;;;;;;4944581;29;20242;-78
2021/06/15 15:23:54;;;;;;;5.90;5.40;;;28.30;75.30;;;;;;4942548;28;20313;-78
2021/06/15 15:26:21;;;;;;;5.53;5.13;;;28.30;76.30;;;;;;4953387;29;20666;-77
2021/06/15 15:28:48;;;;;;;5.57;5.27;;;28.30;76.90;;;;;;4950074;28;20210;-77
2021/06/15 15:31:15;;;;;;;5.40;5.10;;;28.40;77.10;;;;;;4944881;28;20217;-76
2021/06/15 15:33:43;;;;;;;5.60;5.20;;;28.30;76.90;;;;;;4951804;28;20277;-76
2021/06/15 15:36:11;;;;;;;5.90;5.40;;;28.30;76.60;;;;;;4947185;28;20199;-76
2021/06/15 15:38:39;;;;;;;6.20;5.70;;;28.30;76.80;;;;;;4940331;28;20211;-76
2021/06/15 15:41:05;;;;;;;5.70;5.30;;;28.30;76.30;;;;;;4945825;28;20227;-76
2021/06/15 15:43:33;;;;;;;5.33;5.03;;;28.30;75.90;;;;;;4945213;29;20230;-76
2021/06/15 15:46:01;;;;;;;6.17;5.60;;;28.20;75.80;;;;;;4943397;28;20207;-76
2021/06/15 15:48:33;;;;;;;7.37;5.47;;;28.20;76.40;;;;;;4937428;28;20271;-78
2021/06/15 15:51:02;;;;;;;5.93;5.53;;;28.20;77.30;;;;;;4945796;28;20194;-76
2021/06/15 15:53:29;;;;;;;5.80;5.40;;;28.20;76.40;;;;;;4941117;29;20234;-79
2021/06/15 15:55:56;;;;;;;6.03;5.63;;;28.20;75.70;;;;;;4941323;28;20588;-78
2021/06/15 15:58:23;;;;;;;5.80;5.40;;;28.20;74.90;;;;;;4942820;28;20210;-78
2021/06/15 16:00:50;;;;;;;5.90;5.40;;;28.20;75.20;;;;;;4943834;28;20225;-78
2021/06/15 16:03:17;;;;;;;6.10;5.50;;;28.10;74.60;;;;;;4944137;28;20235;-78
2021/06/15 16:05:44;;;;;;;7.47;5.80;;;28.10;75.60;;;;;;4950975;28;20696;-78
2021/06/15 16:08:12;;;;;;;5.90;5.50;;;28.00;76.00;;;;;;4941872;28;20203;-79
2021/06/15 16:10:38;;;;;;;5.77;5.37;;;28.00;75.70;;;;;;4952452;28;20905;-79
2021/06/15 16:13:08;;;;;;;5.70;5.30;;;28.00;75.40;;;;;;4944453;28;20246;-80
2021/06/15 16:15:36;;;;;;;5.70;5.30;;;28.00;74.40;;;;;;4950778;28;20217;-78
2021/06/15 16:18:03;;;;;;;5.30;5.00;;;27.90;74.30;;;;;;4947174;28;20211;-78
2021/06/15 16:20:30;;;;;;;5.77;5.30;;;27.90;74.20;;;;;;4946439;28;20701;-78
2021/06/15 16:22:57;;;;;;;5.77;5.37;;;27.90;73.80;;;;;;4945017;28;20226;-78
2021/06/15 16:25:25;;;;;;;6.00;5.40;;;27.90;73.00;;;;;;4937463;29;20558;-78
2021/06/15 16:27:52;;;;;;;5.70;5.20;;;27.90;74.20;;;;;;4948981;29;20194;-78
2021/06/15 16:30:21;;;;;;;5.77;5.37;;;27.90;74.20;;;;;;4944755;28;20713;-79
2021/06/15 16:32:50;;;;;;;5.40;5.00;;;27.90;75.40;;;;;;4939179;28;20214;-78
2021/06/15 16:35:17;;;;;;;7.10;5.47;;;27.90;75.10;;;;;;4937284;29;20690;-80
2021/06/15 16:37:44;;;;;;;5.57;5.03;;;27.90;74.50;;;;;;4946936;29;20191;-78
2021/06/15 16:40:13;;;;;;;5.67;5.20;;;27.90;73.70;;;;;;4948290;28;20200;-79
2021/06/15 16:42:42;;;;;;;5.40;5.00;;;27.80;72.60;;;;;;4947984;28;20231;-79
2021/06/15 16:45:11;;;;;;;5.40;5.10;;;27.80;73.90;;;;;;4943630;28;20635;-77
2021/06/15 16:47:38;;;;;;;5.20;4.80;;;27.70;75.50;;;;;;4940662;28;20203;-78
2021/06/15 16:50:06;;;;;;;5.73;5.33;;;27.70;73.00;;;;;;4937125;28;20745;-79
2021/06/15 16:52:33;;;;;;;5.90;5.30;;;27.70;73.70;;;;;;4954354;28;20218;-78
2021/06/15 16:55:00;;;;;;;5.80;5.40;;;27.70;74.40;;;;;;4944008;28;20210;-79
2021/06/15 16:57:28;;;;;;;5.70;5.20;;;27.70;74.10;;;;;;4944885;28;20211;-79
2021/06/15 16:59:58;;;;;;;5.50;5.10;;;27.70;73.90;;;;;;4954030;28;20571;-79
2021/06/15 17:02:25;;;;;;;5.63;5.23;;;27.70;73.70;;;;;;4941491;28;20223;-79
2021/06/15 17:04:51;;;;;;;5.60;5.20;;;27.60;74.20;;;;;;4952058;28;20199;-79
2021/06/15 17:07:18;;;;;;;5.37;4.93;;;27.60;75.70;;;;;;4943310;28;20254;-79
2021/06/15 17:09:45;;;;;;;5.57;5.17;;;27.60;74.50;;;;;;4952275;28;20194;-79
2021/06/15 17:12:12;;;;;;;5.43;5.03;;;27.60;74.20;;;;;;4943816;28;20262;-79
2021/06/15 17:14:40;;;;;;;6.30;5.80;;;27.60;75.40;;;;;;4949297;28;20636;-79
2021/06/15 17:17:09;;;;;;;5.60;5.20;;;27.60;74.30;;;;;;4943191;28;20578;-79
2021/06/15 17:19:37;;;;;;;5.77;5.27;;;27.60;75.40;;;;;;4946810;28;20209;-78
2021/06/15 17:22:05;;;;;;;5.43;5.03;;;27.60;74.70;;;;;;4960223;28;20234;-80
2021/06/15 17:32:06;;;;;;;5.40;5.00;;;27.50;75.40;;;;;;4953313;28;20199;-79
2021/06/15 17:42:20;;;;;;;5.40;5.00;;;27.50;76.50;;;;;;4891619;29;20223;-80
2021/06/15 17:55:49;;;;;;;5.40;5.00;;;27.30;79.80;;;;;;4935435;29;20683;-79
2021/06/15 17:58:20;;;;;;;5.53;5.13;;;27.20;80.50;;;;;;4917063;29;20218;-80
2021/06/15 18:00:47;;;;;;;5.10;4.80;;;27.20;80.20;;;;;;4915243;29;20199;-82
2021/06/15 18:03:14;;;;;;;5.57;5.17;;;27.10;80.50;;;;;;4912276;29;20291;-82
2021/06/15 18:05:47;;;;;;;5.30;5.00;;;27.00;80.20;;;;;;4917962;29;20310;-82
2021/06/15 18:08:19;;;;;;;5.40;5.00;;;27.00;80.50;;;;;;4920938;29;20686;-81
2021/06/15 18:10:47;;;;;;;5.60;5.20;;;26.90;80.30;;;;;;4919961;29;20220;-81
2021/06/15 18:13:21;;;;;;;5.40;5.00;;;26.90;80.60;;;;;;4919686;29;20223;-82
2021/06/15 18:15:49;;;;;;;6.30;5.47;;;26.80;80.60;;;;;;4906459;29;20591;-80
2021/06/15 18:18:23;;;;;;;5.40;5.00;;;26.80;81.80;;;;;;4923410;29;20282;-80
2021/06/15 18:20:50;;;;;;;6.00;4.93;;;26.70;80.70;;;;;;4919596;29;20211;-80
2021/06/15 18:23:17;;;;;;;5.10;4.70;;;26.70;80.70;;;;;;4913810;29;20235;-79
2021/06/15 18:25:44;;;;;;;5.30;4.90;;;26.60;81.90;;;;;;4916267;29;20195;-79
2021/06/15 18:28:14;;;;;;;5.17;4.80;;;26.50;83.20;;;;;;4916860;29;20203;-81
2021/06/15 18:30:43;;;;;;;5.00;4.70;;;26.30;82.70;;;;;;4914538;29;20206;-79
2021/06/15 18:33:10;;;;;;;4.97;4.67;;;26.30;84.60;;;;;;4931168;29;20250;-80
2021/06/15 18:35:37;;;;;;;5.07;4.67;;;26.10;87.80;;;;;;4932029;29;20207;-81
2021/06/15 18:38:06;;;;;;;5.07;4.67;;;26.00;85.40;;;;;;4916469;29;20286;-78
2021/06/15 18:40:33;;;;;;;4.83;4.53;;;25.90;85.20;;;;;;4917340;29;20214;-79
2021/06/15 18:43:13;;;;;;;5.07;4.77;;;25.90;86.60;;;;;;4917757;29;20242;-82
2021/06/15 18:45:40;;;;;;;4.80;4.50;;;25.70;87.10;;;;;;4916909;29;20264;-79
2021/06/15 18:48:10;;;;;;;5.00;4.70;;;25.60;87.60;;;;;;4914568;29;20639;-79
2021/06/15 18:50:37;;;;;;;4.70;4.40;;;25.40;90.10;;;;;;4928455;29;20255;-79
2021/06/15 18:53:04;;;;;;;4.80;4.50;;;25.30;89.20;;;;;;4915499;29;20232;-80
2021/06/15 18:55:31;;;;;;;4.73;4.43;;;25.30;90.50;;;;;;4912783;29;20672;-80
2021/06/15 18:58:01;;;;;;;5.00;4.70;;;25.10;90.90;;;;;;4913059;29;20670;-79
2021/06/15 19:00:28;;;;;;;4.83;4.53;;;25.00;90.40;;;;;;4914934;29;20215;-80
2021/06/15 19:02:56;;;;;;;4.70;4.40;;;24.90;90.80;;;;;;4913742;29;20280;-79
2021/06/15 19:05:25;;;;;;;4.70;4.40;;;24.70;91.50;;;;;;4916576;29;20193;-80
2021/06/15 19:07:52;;;;;;;4.77;4.47;;;24.60;92.30;;;;;;4918721;29;20203;-80
2021/06/15 19:10:21;;;;;;;4.40;4.20;;;24.50;92.30;;;;;;4915708;29;20680;-80
2021/06/15 19:12:48;;;;;;;4.30;4.10;;;24.30;93.70;;;;;;4909740;29;20220;-81
2021/06/15 19:15:16;;;;;;;5.10;4.70;;;24.20;94.10;;;;;;4914651;29;20204;-83
2021/06/15 19:17:43;;;;;;;4.53;4.23;;;24.10;94.50;;;;;;4910394;29;20215;-80
2021/06/15 19:20:15;;;;;;;4.50;4.20;;;24.10;94.90;;;;;;4899131;29;20201;-79
2021/06/15 19:22:43;;;;;;;4.83;4.50;;;23.90;95.80;;;;;;4904163;29;20252;-82